createdAt,value
2018-11-04T00:04:58.178Z,97.7
2018-11-04T00:10:00.608Z,97.7
2018-11-04T00:15:03.066Z,97.7
2018-11-04T00:20:05.493Z,97.7
2018-11-04T00:25:07.947Z,97.8
2018-11-04T00:30:10.375Z,97.9
2018-11-04T00:35:12.823Z,97.9
2018-11-04T00:40:15.247Z,97.9
2018-11-04T00:45:17.747Z,98
2018-11-04T00:50:20.145Z,98
2018-11-04T00:55:22.576Z,98
2018-11-04T01:00:25.042Z,98
2018-11-04T01:05:27.448Z,98.1
2018-11-04T01:10:29.983Z,98.2
2018-11-04T01:15:32.319Z,98.3
2018-11-04T01:20:34.767Z,98.3
2018-11-04T01:25:37.217Z,98.3
2018-11-04T01:30:39.659Z,98.4
2018-11-04T01:35:42.091Z,98.4
2018-11-04T01:40:44.536Z,98.4
2018-11-04T01:45:46.991Z,98.5
2018-11-04T01:50:49.410Z,98.6
2018-11-04T01:55:51.892Z,98.6
2018-11-04T02:00:54.315Z,98.7
2018-11-04T02:05:56.744Z,98.7
2018-11-04T02:10:59.191Z,98.7
2018-11-04T02:16:01.630Z,98.7
2018-11-04T02:26:06.520Z,98.8
2018-11-04T02:31:08.942Z,98.8
2018-11-04T02:36:11.384Z,98.9
2018-11-04T02:41:13.886Z,98.9
2018-11-04T02:46:16.247Z,98.9
2018-11-04T02:51:18.707Z,98.9
2018-11-04T02:56:21.163Z,98.9
2018-11-04T03:01:23.577Z,98.9
2018-11-04T03:06:26.031Z,98.9
2018-11-04T03:11:28.493Z,98.9
2018-11-04T03:16:31.001Z,98.9
2018-11-04T03:21:33.340Z,98.9
2018-11-04T03:26:35.797Z,98.9
2018-11-04T03:31:38.210Z,99
2018-11-04T03:36:40.650Z,99
2018-11-04T03:41:43.101Z,99
2018-11-04T03:46:45.526Z,98.9
2018-11-04T03:51:47.976Z,99
2018-11-04T04:01:52.885Z,98.9
2018-11-04T04:06:55.315Z,98.9
2018-11-04T04:11:57.741Z,98.9
2018-11-04T04:17:00.184Z,98.9
2018-11-04T04:22:02.602Z,98.9
2018-11-04T04:27:05.121Z,98.9
2018-11-04T04:32:07.504Z,98.9
2018-11-04T04:37:09.936Z,98.9
2018-11-04T04:42:12.391Z,98.9
2018-11-04T04:47:14.908Z,98.9
2018-11-04T04:52:17.244Z,98.9
2018-11-04T04:57:19.703Z,98.9
2018-11-04T05:02:22.178Z,98.9
2018-11-04T05:07:24.587Z,98.9
2018-11-04T05:12:27.009Z,98.9
2018-11-04T05:17:29.494Z,98.9
2018-11-04T05:22:31.892Z,98.9
2018-11-04T05:27:34.347Z,99
2018-11-04T05:32:36.877Z,98.9
2018-11-04T05:37:39.336Z,98.9
2018-11-04T05:42:41.651Z,99
2018-11-04T05:47:44.095Z,99
2018-11-04T05:52:46.538Z,99
2018-11-04T05:57:49.019Z,99
2018-11-04T06:02:51.421Z,99
2018-11-04T06:07:53.839Z,99
2018-11-04T06:12:56.283Z,99.1
2018-11-04T06:17:58.734Z,99.1
2018-11-04T06:23:01.169Z,99
2018-11-04T06:28:03.612Z,99.1
2018-11-04T06:33:06.054Z,99.1
2018-11-04T06:38:08.490Z,99.1
2018-11-04T06:43:10.939Z,99.1
2018-11-04T06:48:13.366Z,99.1
2018-11-04T06:53:15.839Z,99.1
2018-11-04T06:58:18.254Z,99.1
2018-11-04T07:03:20.729Z,99
2018-11-04T07:08:23.132Z,99.1
2018-11-04T07:13:25.595Z,99
2018-11-04T07:18:28.013Z,99
2018-11-04T07:23:30.455Z,99
2018-11-04T07:28:32.918Z,99
2018-11-04T07:33:35.337Z,98.9
2018-11-04T07:38:37.790Z,98.9
2018-11-04T07:43:40.206Z,98.8
2018-11-04T07:48:42.677Z,98.8
2018-11-04T07:53:45.092Z,98.9
2018-11-04T07:58:47.542Z,98.9
2018-11-04T08:03:49.972Z,99
2018-11-04T08:08:52.415Z,99.1
2018-11-04T08:13:54.860Z,99
2018-11-04T08:18:57.301Z,98.9
2018-11-04T08:23:59.769Z,98.9
2018-11-04T08:29:02.195Z,99
2018-11-04T08:34:04.620Z,99
2018-11-04T08:39:07.066Z,99
2018-11-04T08:44:09.505Z,98.8
2018-11-04T08:49:11.933Z,98.8
2018-11-04T08:54:14.374Z,98.7
2018-11-04T08:59:16.811Z,98.2
2018-11-04T09:04:19.265Z,97.9
2018-11-04T09:09:21.696Z,97.8
2018-11-04T09:14:24.223Z,97.6
2018-11-04T09:19:26.585Z,97.5
2018-11-04T09:24:29.028Z,97.3
2018-11-04T09:29:31.447Z,97.3
2018-11-04T09:34:33.935Z,97.3
2018-11-04T09:39:36.328Z,97.1
2018-11-04T09:44:38.781Z,97.1
2018-11-04T09:49:41.225Z,96.9
2018-11-04T09:54:43.702Z,96.7
2018-11-04T09:59:46.263Z,96.5
2018-11-04T10:04:48.532Z,96.3
2018-11-04T10:09:50.978Z,96.2
2018-11-04T10:14:53.414Z,96.1
2018-11-04T10:19:56.172Z,95.9
2018-11-04T10:24:58.310Z,95.7
2018-11-04T10:30:00.808Z,95.5
2018-11-04T10:35:03.193Z,95.4
2018-11-04T10:40:05.669Z,95.1
2018-11-04T10:45:08.062Z,95
2018-11-04T10:50:10.513Z,95
2018-11-04T10:55:12.971Z,95
2018-11-04T11:00:15.462Z,95
2018-11-04T11:05:17.816Z,95
2018-11-04T11:10:20.278Z,94.9
2018-11-04T11:15:22.706Z,94.8
2018-11-04T11:20:25.138Z,94.7
2018-11-04T11:25:27.584Z,94.6
2018-11-04T11:30:30.029Z,94.5
2018-11-04T11:35:32.467Z,94.4
2018-11-04T11:40:34.936Z,94.1
2018-11-04T11:45:37.339Z,93.9
2018-11-04T11:50:39.777Z,93.7
2018-11-04T11:55:42.256Z,93.5
2018-11-04T12:00:44.701Z,93.2
2018-11-04T12:05:47.095Z,92.9
2018-11-04T12:10:49.542Z,92.5
2018-11-04T12:15:51.986Z,91.7
2018-11-04T12:20:54.414Z,91.1
2018-11-04T12:25:56.866Z,91.1
2018-11-04T12:30:59.296Z,91.1
2018-11-04T12:36:01.753Z,91.2
2018-11-04T12:41:04.183Z,91.2
2018-11-04T12:46:06.668Z,91.2
2018-11-04T12:51:09.065Z,91.3
2018-11-04T12:56:11.517Z,91.2
2018-11-04T13:01:13.949Z,91.3
2018-11-04T13:06:16.386Z,91.3
2018-11-04T13:11:18.920Z,91.3
2018-11-04T13:16:21.254Z,91.1
2018-11-04T13:26:26.164Z,90.9
2018-11-04T13:31:28.669Z,90.8
2018-11-04T13:36:31.049Z,90.7
2018-11-04T13:41:33.470Z,90.5
2018-11-04T13:46:35.907Z,90.5
2018-11-04T13:51:38.344Z,90.5
2018-11-04T13:56:40.794Z,90.7
2018-11-04T14:01:43.229Z,90.7
2018-11-04T14:06:45.666Z,90.6
2018-11-04T14:11:48.106Z,90.6
2018-11-04T14:16:50.582Z,90.6
2018-11-04T14:21:53.012Z,90.6
2018-11-04T14:26:55.443Z,90.7
2018-11-04T14:31:57.878Z,90.8
2018-11-04T14:37:00.315Z,90.9
2018-11-04T14:42:02.805Z,91
2018-11-04T14:47:05.188Z,91.2
2018-11-04T14:52:07.619Z,91.5
2018-11-04T14:57:10.082Z,91.7
2018-11-04T15:02:12.511Z,91.8
2018-11-04T15:07:14.987Z,91.9
2018-11-04T15:12:17.401Z,92.1
2018-11-04T15:17:19.844Z,92.1
2018-11-04T15:22:22.270Z,92.2
2018-11-04T15:27:24.707Z,92.3
2018-11-04T15:32:27.168Z,92.3
2018-11-04T15:37:29.640Z,92.5
2018-11-04T15:42:32.044Z,92.6
2018-11-04T15:47:34.478Z,92.6
2018-11-04T15:52:36.913Z,92.7
2018-11-04T15:57:39.348Z,92.9
2018-11-04T16:02:41.901Z,92.9
2018-11-04T16:07:44.240Z,93
2018-11-04T16:12:46.667Z,93
2018-11-04T16:17:49.119Z,93
2018-11-04T16:22:51.554Z,93.2
2018-11-04T16:27:53.992Z,93.2
2018-11-04T16:32:56.442Z,93.7
2018-11-04T16:37:59.026Z,93.7
2018-11-04T16:43:01.326Z,93.8
2018-11-04T16:48:03.750Z,94
2018-11-04T16:53:06.202Z,94.4
2018-11-04T16:58:08.637Z,94.8
2018-11-04T17:03:11.067Z,94.9
2018-11-04T17:08:13.534Z,95
2018-11-04T17:13:15.989Z,95
2018-11-04T17:18:18.542Z,95.1
2018-11-04T17:23:20.831Z,95.1
2018-11-04T17:28:23.277Z,95.2
2018-11-04T17:33:25.717Z,95.4
2018-11-04T17:38:28.204Z,95.6
2018-11-04T17:43:30.595Z,95.9
2018-11-04T17:48:33.027Z,95.6
2018-11-04T17:53:35.508Z,95.7
2018-11-04T17:58:37.914Z,95.7
2018-11-04T18:03:40.349Z,95.9
2018-11-04T18:08:42.800Z,96
2018-11-04T18:13:45.379Z,95.9
2018-11-04T18:18:47.662Z,95.9
2018-11-04T18:23:50.123Z,96
2018-11-04T18:28:52.545Z,96.1
2018-11-04T18:33:54.982Z,96.3
2018-11-04T18:38:57.430Z,96.5
2018-11-04T18:44:00.035Z,96.5
2018-11-04T18:49:02.310Z,96.5
2018-11-04T18:54:04.778Z,96.5
2018-11-04T18:59:07.287Z,96.5
2018-11-04T19:04:09.627Z,96.5
2018-11-04T19:09:12.096Z,96.5
2018-11-04T19:14:14.583Z,96.5
2018-11-04T19:19:16.978Z,96.6
2018-11-04T19:24:19.396Z,96.8
2018-11-04T19:29:21.859Z,97
2018-11-04T19:34:24.272Z,97.1
2018-11-04T19:39:26.715Z,97.2
2018-11-04T19:44:29.156Z,97.3
2018-11-04T19:49:31.595Z,97.6
2018-11-04T19:54:34.034Z,97.6
2018-11-04T19:59:36.507Z,97.7
2018-11-04T20:04:38.992Z,97.8
2018-11-04T20:09:41.378Z,97.9
2018-11-04T20:14:43.790Z,98.2
2018-11-04T20:19:46.322Z,98.4
2018-11-04T20:24:48.680Z,98.4
2018-11-04T20:29:51.130Z,98.5
2018-11-04T20:34:53.562Z,98.6
2018-11-04T20:39:55.998Z,98.7
2018-11-04T20:44:58.539Z,98.8
2018-11-04T20:50:00.896Z,98.9
2018-11-04T20:55:03.321Z,98.9
2018-11-04T21:00:05.935Z,98.9
2018-11-04T21:05:08.202Z,98.9
2018-11-04T21:10:10.658Z,98.9
2018-11-04T21:15:13.080Z,99
2018-11-04T21:20:15.525Z,99.1
2018-11-04T21:25:18.011Z,99.1
2018-11-04T21:30:20.407Z,99.2
2018-11-04T21:35:22.942Z,99.1
2018-11-04T21:40:25.323Z,99.2
2018-11-04T21:45:27.724Z,99
2018-11-04T21:50:30.166Z,99
2018-11-04T21:55:32.857Z,99
2018-11-04T22:00:35.066Z,99
2018-11-04T22:05:37.482Z,99
2018-11-04T22:10:40.112Z,98.9
2018-11-04T22:15:42.364Z,99
2018-11-04T22:20:44.833Z,99.1
2018-11-04T22:25:47.253Z,99.1
2018-11-04T22:30:49.681Z,99
2018-11-04T22:35:52.132Z,98.8
2018-11-04T22:40:54.574Z,98.9
2018-11-04T22:45:57.002Z,98.9
2018-11-04T22:50:59.467Z,99
2018-11-04T22:56:02.079Z,99
2018-11-04T23:01:04.331Z,99.1
2018-11-04T23:06:06.774Z,99.1
2018-11-04T23:11:09.217Z,99.1
2018-11-04T23:16:11.669Z,99
2018-11-04T23:21:14.111Z,99
2018-11-04T23:26:16.540Z,99
2018-11-04T23:31:18.962Z,98.9
2018-11-04T23:36:21.406Z,98.8
2018-11-04T23:41:23.848Z,98.8
2018-11-04T23:46:26.283Z,98.9
2018-11-04T23:51:29.123Z,98.9
2018-11-04T23:56:31.167Z,99
